Time;durP1;ratioP1;P1;durP2;ratioP2;P2;SDS_P1;SDS_P2;PMS_P1;PMS_P2;Temp;Humidity;BMP_temperature;BMP_pressure;BME280_temperature;BME280_humidity;BME280_pressure;Samples;Min_cycle;Max_cycle;Signal;HPM_P1;HPM_P2
2022/06/28 00:01:27;;;;;;;4.15;2.90;;;;;;;24.95;100.00;100232.16;5113091;28;20633;-71
2022/06/28 00:03:54;;;;;;;6.75;3.35;;;;;;;24.93;100.00;100243.78;5113376;28;20189;-70
2022/06/28 00:06:21;;;;;;;6.15;3.45;;;;;;;25.06;100.00;100253.81;5113126;28;20213;-71
2022/06/28 00:08:48;;;;;;;7.70;4.50;;;;;;;25.07;100.00;100258.19;5112611;28;20201;-71
2022/06/28 00:11:15;;;;;;;9.75;5.00;;;;;;;25.09;100.00;100261.63;5113558;28;20194;-71
2022/06/28 00:13:43;;;;;;;5.88;4.18;;;;;;;25.15;100.00;100265.81;5112511;28;20676;-71
2022/06/28 00:16:14;;;;;;;8.50;4.07;;;;;;;25.12;100.00;100261.50;5113384;28;20193;-71
2022/06/28 00:18:42;;;;;;;10.93;4.18;;;;;;;25.22;100.00;100261.97;5112537;28;20657;-71
2022/06/28 00:21:09;;;;;;;8.20;3.75;;;;;;;25.24;100.00;100259.25;5113132;28;20201;-71
2022/06/28 00:23:38;;;;;;;13.68;4.85;;;;;;;25.29;100.00;100246.69;5112863;28;20201;-71
2022/06/28 00:26:05;;;;;;;14.68;3.95;;;;;;;25.38;100.00;100256.88;5113039;28;20693;-70
2022/06/28 00:28:32;;;;;;;12.95;3.83;;;;;;;25.35;100.00;100263.19;5112353;28;20197;-72
2022/06/28 00:31:01;;;;;;;13.45;4.60;;;;;;;25.43;100.00;100252.25;5112552;28;20217;-72
2022/06/28 00:33:28;;;;;;;9.65;4.75;;;;;;;25.21;100.00;100254.09;5112617;28;20563;-72
2022/06/28 00:35:55;;;;;;;12.98;5.07;;;;;;;25.12;100.00;100250.88;5112763;28;20204;-71
2022/06/28 00:38:22;;;;;;;7.57;4.18;;;;;;;25.15;100.00;100250.75;5112088;28;21031;-71
2022/06/28 00:40:51;;;;;;;5.10;3.75;;;;;;;25.03;100.00;100245.97;5112267;28;20251;-71
2022/06/28 00:43:19;;;;;;;5.45;3.90;;;;;;;24.71;100.00;100248.19;5112367;28;20202;-71
2022/06/28 00:45:47;;;;;;;12.25;3.40;;;;;;;24.67;100.00;100226.22;5112471;28;20224;-71
2022/06/28 00:48:18;;;;;;;3.78;3.47;;;;;;;24.74;100.00;100232.13;5111943;28;20193;-72
2022/06/28 00:50:45;;;;;;;7.07;3.63;;;;;;;24.84;100.00;100250.31;5112109;28;20202;-72
2022/06/28 00:53:14;;;;;;;7.43;3.28;;;;;;;24.72;100.00;100234.88;5112387;28;20338;-71
2022/06/28 00:55:42;;;;;;;11.00;3.58;;;;;;;24.62;100.00;100258.22;5111339;28;20201;-71
2022/06/28 00:58:09;;;;;;;3.72;3.30;;;;;;;24.68;100.00;100257.97;5111668;28;20221;-71
2022/06/28 01:00:38;;;;;;;6.53;3.30;;;;;;;24.92;100.00;100261.47;5093550;28;20193;-72
2022/06/28 01:03:05;;;;;;;6.22;3.47;;;;;;;24.86;100.00;100258.22;5111788;28;20197;-71
2022/06/28 01:05:36;;;;;;;6.05;3.80;;;;;;;24.87;100.00;100255.47;5111946;28;20230;-72
2022/06/28 01:08:05;;;;;;;6.40;3.65;;;;;;;24.83;100.00;100267.13;5095186;28;20201;-71
2022/06/28 01:10:32;;;;;;;4.00;3.15;;;;;;;24.63;100.00;100267.03;5111173;28;20247;-72
2022/06/28 01:12:59;;;;;;;7.80;3.58;;;;;;;24.33;100.00;100268.25;5111813;28;20209;-71
2022/06/28 01:15:26;;;;;;;9.73;3.22;;;;;;;24.06;100.00;100244.47;5111902;28;20208;-71
2022/06/28 01:17:53;;;;;;;6.50;2.97;;;;;;;24.25;100.00;100260.59;5111779;28;20201;-72
2022/06/28 01:20:21;;;;;;;7.72;3.63;;;;;;;24.14;100.00;100242.44;5112149;28;20204;-72
2022/06/28 01:22:49;;;;;;;7.95;3.15;;;;;;;24.29;100.00;100253.38;5111266;28;20200;-72
2022/06/28 01:25:16;;;;;;;5.50;3.45;;;;;;;24.36;100.00;100257.53;5111659;28;20205;-70
2022/06/28 01:27:43;;;;;;;4.15;2.97;;;;;;;24.39;100.00;100252.97;5091590;28;20209;-71
2022/06/28 01:30:11;;;;;;;3.70;3.28;;;;;;;24.16;100.00;100234.41;5093650;28;20632;-70
2022/06/28 01:32:38;;;;;;;10.23;3.90;;;;;;;23.87;100.00;100239.91;5111008;28;20286;-71
2022/06/28 01:35:05;;;;;;;6.25;4.28;;;;;;;23.78;100.00;100249.06;5111594;28;20205;-71
2022/06/28 01:37:32;;;;;;;6.45;4.13;;;;;;;23.96;100.00;100256.34;5111212;28;20665;-71
2022/06/28 01:40:01;;;;;;;8.98;4.80;;;;;;;24.08;100.00;100245.28;5111429;28;20200;-71
2022/06/28 01:42:29;;;;;;;14.27;4.68;;;;;;;24.17;100.00;100252.94;5092077;28;20204;-71
2022/06/28 01:44:57;;;;;;;8.63;4.75;;;;;;;24.18;100.00;100254.66;5111211;28;20345;-70
2022/06/28 01:47:25;;;;;;;8.63;5.25;;;;;;;24.08;100.00;100250.56;5111513;28;20217;-71
2022/06/28 01:49:52;;;;;;;11.65;5.32;;;;;;;24.03;100.00;100249.91;5111459;28;20182;-71
2022/06/28 01:52:19;;;;;;;17.40;5.78;;;;;;;24.07;100.00;100256.81;5111263;28;20205;-71
2022/06/28 01:54:46;;;;;;;11.23;5.50;;;;;;;24.08;100.00;100236.47;5111135;28;20193;-71
2022/06/28 01:57:15;;;;;;;15.15;6.47;;;;;;;24.24;100.00;100242.09;5111152;28;20204;-71
2022/06/28 01:59:44;;;;;;;21.98;8.07;;;;;;;23.88;100.00;100250.47;5111420;28;20208;-71
2022/06/28 02:02:10;;;;;;;18.50;8.23;;;;;;;23.99;100.00;100242.97;5111716;28;20208;-71
2022/06/28 02:04:37;;;;;;;14.32;6.82;;;;;;;23.90;100.00;100248.59;5114891;28;20212;-71
2022/06/28 02:07:05;;;;;;;18.52;7.25;;;;;;;23.78;100.00;100238.47;5115607;28;20229;-71
2022/06/28 02:09:32;;;;;;;24.00;6.63;;;;;;;23.88;100.00;100245.16;5096297;28;20193;-71
2022/06/28 02:11:59;;;;;;;17.55;6.80;;;;;;;23.91;100.00;100253.00;5115416;28;20197;-71
2022/06/28 02:14:27;;;;;;;16.15;6.20;;;;;;;24.11;100.00;100253.09;5115557;28;20209;-70
2022/06/28 02:16:56;;;;;;;11.32;6.85;;;;;;;23.83;100.00;100235.66;5115185;28;20193;-71
2022/06/28 02:19:23;;;;;;;12.93;6.95;;;;;;;23.98;100.00;100262.44;5114959;28;20919;-71
2022/06/28 02:21:50;;;;;;;13.82;6.47;;;;;;;24.02;100.00;100261.41;5114658;28;20205;-71
2022/06/28 02:24:17;;;;;;;16.95;6.88;;;;;;;24.03;100.00;100251.69;5114979;28;20201;-71
2022/06/28 02:26:44;;;;;;;16.10;7.22;;;;;;;24.08;100.00;100257.66;5114718;28;20225;-71
2022/06/28 02:29:10;;;;;;;18.50;7.55;;;;;;;24.15;100.00;100254.75;5115087;28;20208;-71
2022/06/28 02:31:39;;;;;;;17.85;8.93;;;;;;;24.27;100.00;100258.72;5114925;28;20221;-71
2022/06/28 02:34:06;;;;;;;18.00;8.50;;;;;;;24.21;100.00;100255.47;5114714;28;20202;-71
2022/06/28 02:42:02;;;;;;;27.70;9.80;;;;;;;23.86;100.00;100224.97;5094595;28;20201;-71
2022/06/28 02:44:29;;;;;;;18.10;7.38;;;;;;;23.70;100.00;100248.47;5099533;28;20208;-71
2022/06/28 02:46:57;;;;;;;16.73;7.30;;;;;;;23.81;100.00;100246.31;5078661;28;20233;-71
2022/06/28 02:49:24;;;;;;;16.85;6.35;;;;;;;23.86;100.00;100254.09;5114713;28;20582;-71
2022/06/28 02:51:51;;;;;;;12.55;6.20;;;;;;;24.00;100.00;100262.41;5078829;28;20197;-71
2022/06/28 02:54:18;;;;;;;8.65;5.95;;;;;;;23.83;100.00;100262.16;5114833;28;20201;-71
2022/06/28 02:56:45;;;;;;;12.23;5.40;;;;;;;23.92;100.00;100267.97;5114691;28;20645;-71
2022/06/28 02:59:12;;;;;;;7.75;4.90;;;;;;;23.83;100.00;100231.22;5114093;28;20266;-70
2022/06/28 03:01:39;;;;;;;14.73;5.60;;;;;;;23.96;100.00;100248.41;5112819;28;20213;-71
2022/06/28 03:04:08;;;;;;;8.80;5.45;;;;;;;24.12;100.00;100249.53;5074381;28;20573;-71
2022/06/28 03:06:34;;;;;;;10.95;5.40;;;;;;;24.04;100.00;100254.25;5109952;28;20251;-70
2022/06/28 03:09:01;;;;;;;14.85;5.35;;;;;;;24.13;100.00;100263.69;5114431;28;20266;-71
2022/06/28 03:11:28;;;;;;;11.32;5.72;;;;;;;24.15;100.00;100262.69;5113996;28;20200;-71
2022/06/28 03:13:55;;;;;;;15.68;5.88;;;;;;;24.33;100.00;100255.00;5114144;28;20202;-75
2022/06/28 03:16:22;;;;;;;15.07;5.15;;;;;;;24.38;100.00;100266.28;5106266;28;20202;-68
2022/06/28 03:18:49;;;;;;;9.88;4.50;;;;;;;24.32;100.00;100266.50;5093881;28;20202;-77
2022/06/28 03:21:17;;;;;;;14.40;5.47;;;;;;;24.48;100.00;100249.09;5093884;28;20209;-69
2022/06/28 03:23:44;;;;;;;8.15;4.30;;;;;;;24.70;100.00;100260.56;5093739;28;20209;-69
2022/06/28 03:26:11;;;;;;;8.40;4.70;;;;;;;24.72;100.00;100269.34;5093608;28;20263;-70
2022/06/28 03:28:38;;;;;;;6.47;4.32;;;;;;;24.69;100.00;100256.19;5102625;28;20221;-70
2022/06/28 03:31:05;;;;;;;7.18;4.00;;;;;;;24.85;100.00;100277.69;5113742;28;20233;-70
2022/06/28 03:33:32;;;;;;;7.82;3.75;;;;;;;24.83;100.00;100274.22;5113857;28;20197;-71
2022/06/28 03:35:59;;;;;;;9.40;4.00;;;;;;;24.86;100.00;100279.44;5078116;28;20216;-71
2022/06/28 03:38:27;;;;;;;10.18;4.50;;;;;;;24.96;100.00;100265.72;5113838;28;20197;-70
2022/06/28 03:40:54;;;;;;;6.40;4.15;;;;;;;25.55;100.00;100278.28;5112664;28;20189;-70
2022/06/28 03:43:21;;;;;;;9.15;3.95;;;;;;;26.38;100.00;100284.31;5113492;28;20190;-70
2022/06/28 03:45:48;;;;;;;6.57;3.85;;;;;;;27.18;97.35;100284.91;5113099;28;20217;-70
2022/06/28 03:48:14;;;;;;;4.25;3.40;;;;;;;27.56;92.95;100283.84;5110541;28;20222;-70
2022/06/28 03:50:41;;;;;;;6.45;4.00;;;;;;;27.90;87.82;100246.47;5111020;28;20541;-71
2022/06/28 03:53:08;;;;;;;4.13;3.80;;;;;;;28.64;83.85;100300.22;5094559;28;20194;-69
2022/06/28 03:55:36;;;;;;;6.35;3.85;;;;;;;29.16;80.32;100291.94;5077662;28;20212;-70
2022/06/28 03:58:03;;;;;;;13.90;3.85;;;;;;;29.52;74.97;100277.31;5113297;28;20208;-70
2022/06/28 04:00:30;;;;;;;4.32;3.22;;;;;;;30.14;70.14;100307.41;5113402;28;20200;-70
2022/06/28 04:03:00;;;;;;;8.35;3.53;;;;;;;30.10;69.39;100302.34;5094237;28;20299;-70
2022/06/28 04:05:27;;;;;;;6.35;4.00;;;;;;;30.76;66.61;100302.59;5113237;28;20205;-70
2022/06/28 04:07:54;;;;;;;6.55;4.30;;;;;;;31.05;63.92;100287.31;5113116;28;20637;-69
2022/06/28 04:10:21;;;;;;;6.35;3.88;;;;;;;31.63;60.73;100303.91;5113328;28;20193;-70
2022/06/28 04:12:49;;;;;;;7.63;4.15;;;;;;;31.50;59.80;100292.25;5112936;28;20212;-70
2022/06/28 04:15:16;;;;;;;4.80;4.30;;;;;;;31.93;58.57;100299.09;5076142;28;20259;-69
2022/06/28 04:17:44;;;;;;;4.35;3.55;;;;;;;31.71;58.22;100306.06;5113128;28;20219;-69
2022/06/28 04:20:12;;;;;;;6.40;4.03;;;;;;;32.17;58.37;100319.84;5113145;28;20265;-69
2022/06/28 04:22:39;;;;;;;4.10;3.67;;;;;;;32.40;57.21;100319.06;5072797;28;20203;-69
2022/06/28 04:25:06;;;;;;;10.23;4.63;;;;;;;32.40;55.33;100309.19;5109267;28;20189;-70
2022/06/28 04:27:33;;;;;;;6.25;4.35;;;;;;;31.49;56.22;100306.66;5112354;28;20224;-70
2022/06/28 04:30:03;;;;;;;7.65;4.22;;;;;;;32.16;56.35;100315.44;5076392;28;20240;-70
2022/06/28 04:32:30;;;;;;;7.07;4.05;;;;;;;32.72;55.01;100306.03;5112233;28;20197;-69
2022/06/28 04:34:57;;;;;;;10.13;4.55;;;;;;;32.99;53.59;100324.66;5112495;28;20197;-69
2022/06/28 04:37:24;;;;;;;8.85;4.45;;;;;;;33.43;52.47;100314.13;5112618;28;20591;-70
2022/06/28 04:39:51;;;;;;;7.60;4.38;;;;;;;33.74;51.27;100337.75;5112219;28;20204;-70
2022/06/28 04:42:19;;;;;;;10.32;5.00;;;;;;;33.76;50.62;100325.03;5111896;28;20197;-71
2022/06/28 04:44:45;;;;;;;8.15;4.88;;;;;;;33.71;50.67;100329.91;5112146;28;20220;-71
2022/06/28 04:47:14;;;;;;;6.28;4.50;;;;;;;33.34;51.27;100325.59;5076358;28;20231;-71
2022/06/28 04:49:41;;;;;;;6.20;4.47;;;;;;;33.82;50.59;100316.47;5111936;28;20284;-71
2022/06/28 04:52:09;;;;;;;8.90;4.07;;;;;;;33.64;51.01;100328.66;5112040;28;20196;-69
2022/06/28 04:54:35;;;;;;;7.55;4.50;;;;;;;33.95;50.79;100326.31;5111996;28;20201;-70
2022/06/28 04:57:02;;;;;;;5.80;4.13;;;;;;;33.72;50.36;100326.25;5112233;28;20204;-70
2022/06/28 04:59:29;;;;;;;8.77;3.90;;;;;;;33.90;50.90;100318.56;5112068;28;20201;-69
2022/06/28 05:01:56;;;;;;;6.00;4.88;;;;;;;33.32;51.47;100309.56;5111074;28;20189;-69
2022/06/28 05:04:24;;;;;;;10.68;4.32;;;;;;;32.55;53.97;100303.69;5088491;28;20194;-70
2022/06/28 05:06:51;;;;;;;6.35;4.60;;;;;;;33.11;54.49;100297.75;5107204;28;20255;-69
2022/06/28 05:09:18;;;;;;;6.55;3.95;;;;;;;33.72;51.54;100303.84;5108389;28;20212;-70
2022/06/28 05:11:44;;;;;;;9.45;4.40;;;;;;;33.42;51.23;100312.44;5111355;28;20197;-68
2022/06/28 05:14:11;;;;;;;40.95;17.08;;;;;;;33.65;50.16;100314.25;5111258;28;20212;-67
2022/06/28 05:16:38;;;;;;;28.15;17.77;;;;;;;33.31;50.54;100309.69;5111467;28;20208;-71
2022/06/28 05:19:06;;;;;;;7.47;3.97;;;;;;;33.75;49.51;100309.00;5111755;28;20279;-70
2022/06/28 05:21:34;;;;;;;5.68;4.32;;;;;;;34.62;47.87;100322.72;5111420;28;20254;-70
2022/06/28 05:24:01;;;;;;;10.45;3.85;;;;;;;34.93;47.32;100320.19;5111893;28;20200;-70
2022/06/28 05:26:28;;;;;;;5.68;4.15;;;;;;;34.90;47.53;100315.91;5111890;28;20216;-71
2022/06/28 05:28:54;;;;;;;7.07;4.30;;;;;;;34.65;47.14;100300.91;5111482;28;20543;-71
2022/06/28 05:31:21;;;;;;;7.50;4.18;;;;;;;34.55;47.51;100309.81;5111502;28;20232;-71
2022/06/28 05:33:48;;;;;;;6.55;4.00;;;;;;;34.57;47.50;100287.16;5110977;28;20201;-69
2022/06/28 05:36:15;;;;;;;13.43;4.03;;;;;;;34.69;47.42;100313.16;5111082;28;20209;-71
2022/06/28 05:38:43;;;;;;;10.18;3.92;;;;;;;34.67;47.62;100315.13;5111106;28;20189;-71
2022/06/28 05:41:10;;;;;;;8.68;3.83;;;;;;;34.95;46.04;100320.94;5111561;28;20204;-72
2022/06/28 05:43:37;;;;;;;12.65;4.55;;;;;;;34.88;47.00;100309.81;5111416;28;20571;-72
2022/06/28 05:46:04;;;;;;;6.43;4.22;;;;;;;34.26;48.22;100290.63;5111637;28;20220;-72
2022/06/28 05:48:31;;;;;;;9.90;4.28;;;;;;;34.68;47.41;100313.25;5111056;28;20216;-71
2022/06/28 05:50:57;;;;;;;12.90;4.53;;;;;;;34.79;47.11;100314.09;5110817;28;20204;-71
2022/06/28 05:53:24;;;;;;;13.55;4.13;;;;;;;34.24;48.26;100306.06;5074977;28;20193;-71
2022/06/28 05:55:53;;;;;;;12.18;4.93;;;;;;;34.44;48.50;100301.75;5110539;28;20648;-72
2022/06/28 05:58:19;;;;;;;7.78;4.40;;;;;;;33.84;49.28;100303.78;5110735;28;20200;-72
2022/06/28 06:00:47;;;;;;;12.75;4.78;;;;;;;33.85;50.09;100316.22;5110593;28;20672;-72
2022/06/28 06:03:14;;;;;;;10.07;5.10;;;;;;;34.09;49.23;100323.38;5091489;28;20216;-70
2022/06/28 06:05:41;;;;;;;13.75;5.10;;;;;;;32.98;51.16;100270.03;5110727;28;20200;-71
2022/06/28 06:08:08;;;;;;;9.68;5.70;;;;;;;32.75;53.18;100328.16;5110724;28;20233;-71
2022/06/28 06:10:34;;;;;;;16.08;5.15;;;;;;;32.47;54.46;100328.41;5110441;28;20586;-70
2022/06/28 06:13:03;;;;;;;19.05;6.35;;;;;;;32.20;57.88;100325.00;5110515;28;20199;-70
2022/06/28 06:15:30;;;;;;;11.98;6.28;;;;;;;32.22;57.35;100317.69;5110538;28;20211;-70
2022/06/28 06:17:57;;;;;;;12.80;6.45;;;;;;;32.40;57.76;100321.75;5110455;28;20201;-70
2022/06/28 06:20:24;;;;;;;19.63;6.55;;;;;;;32.73;57.02;100330.09;5110454;28;20201;-71
2022/06/28 06:22:51;;;;;;;24.05;6.60;;;;;;;32.34;58.21;100323.06;5074679;28;20602;-71
2022/06/28 06:25:18;;;;;;;14.68;6.47;;;;;;;32.28;61.44;100322.66;5110516;28;20197;-70
2022/06/28 06:27:45;;;;;;;16.52;6.97;;;;;;;32.24;61.42;100330.06;5110234;28;20224;-71
2022/06/28 06:30:14;;;;;;;16.15;7.63;;;;;;;32.20;62.17;100341.09;5110124;28;20233;-71
2022/06/28 06:32:41;;;;;;;25.17;9.43;;;;;;;32.03;63.26;100344.09;5110450;28;20265;-71
2022/06/28 06:35:09;;;;;;;18.77;8.73;;;;;;;31.67;65.14;100331.38;5110502;28;20204;-71
2022/06/28 06:37:36;;;;;;;19.40;8.07;;;;;;;31.48;67.30;100342.44;5110339;28;20205;-71
2022/06/28 06:40:03;;;;;;;22.17;8.00;;;;;;;31.02;70.40;100339.28;5074606;28;20220;-70
2022/06/28 06:42:30;;;;;;;13.20;7.70;;;;;;;30.88;71.35;100337.47;5110265;28;20197;-71
2022/06/28 06:44:58;;;;;;;20.25;8.48;;;;;;;30.48;72.45;100341.84;5108982;28;20192;-71
2022/06/28 06:47:26;;;;;;;26.10;7.88;;;;;;;30.14;77.94;100330.63;5110089;28;20704;-71
2022/06/28 06:49:53;;;;;;;14.02;7.72;;;;;;;29.94;79.31;100331.84;5113787;28;20613;-71
2022/06/28 06:52:20;;;;;;;18.42;8.90;;;;;;;29.38;80.87;100332.53;5114303;28;20208;-70
2022/06/28 06:54:47;;;;;;;17.42;8.88;;;;;;;28.61;85.27;100344.91;5114046;28;20235;-71
2022/06/28 06:57:15;;;;;;;11.57;6.72;;;;;;;28.75;86.36;100337.91;5113826;28;20205;-70
2022/06/28 06:59:42;;;;;;;11.88;6.50;;;;;;;28.46;87.19;100318.13;5113705;28;20198;-71
2022/06/28 07:02:09;;;;;;;9.88;6.07;;;;;;;28.69;87.86;100326.69;5114074;28;20193;-71
2022/06/28 07:04:39;;;;;;;15.50;5.70;;;;;;;29.05;85.68;100314.78;5078486;28;20202;-71
2022/06/28 07:07:06;;;;;;;11.93;5.80;;;;;;;29.01;81.48;100313.25;5113637;28;20204;-70
2022/06/28 07:09:33;;;;;;;14.48;5.30;;;;;;;29.32;81.46;100325.75;5113748;28;20221;-70
2022/06/28 07:12:00;;;;;;;7.78;4.88;;;;;;;29.49;79.52;100335.44;5113650;28;20201;-71
2022/06/28 07:14:27;;;;;;;8.57;4.95;;;;;;;29.80;80.42;100331.78;5113700;27;20636;-72
2022/06/28 07:16:54;;;;;;;6.53;4.70;;;;;;;29.92;76.80;100331.94;5111516;28;20201;-71
2022/06/28 07:19:20;;;;;;;5.85;4.80;;;;;;;29.85;78.03;100340.44;5101927;28;20678;-70
2022/06/28 07:21:49;;;;;;;9.27;5.38;;;;;;;29.59;84.50;100341.94;5077616;28;20220;-71
2022/06/28 07:24:17;;;;;;;11.63;5.32;;;;;;;29.22;84.55;100343.19;5114112;28;20231;-72
2022/06/28 07:26:44;;;;;;;5.28;4.22;;;;;;;28.54;82.47;100281.19;5113518;28;20255;-72
2022/06/28 07:29:13;;;;;;;7.28;5.03;;;;;;;28.98;83.74;100321.44;5113348;28;20217;-69
2022/06/28 07:31:40;;;;;;;7.00;5.10;;;;;;;29.05;83.38;100336.16;5113208;28;20229;-69
2022/06/28 07:34:06;;;;;;;10.60;5.30;;;;;;;29.22;84.45;100350.34;5077193;28;20250;-70
2022/06/28 07:36:33;;;;;;;4.97;4.55;;;;;;;28.94;87.51;100335.91;5103100;28;20209;-70
2022/06/28 07:39:01;;;;;;;6.00;4.45;;;;;;;28.86;86.89;100346.16;5108868;28;20205;-70
2022/06/28 07:41:28;;;;;;;6.13;4.38;;;;;;;28.52;82.20;100348.94;5112911;28;20194;-69
2022/06/28 07:43:55;;;;;;;7.13;3.95;;;;;;;28.58;85.39;100341.44;5113498;28;20205;-69
2022/06/28 07:46:23;;;;;;;4.25;3.83;;;;;;;28.66;78.81;100343.69;5113014;28;20208;-70
2022/06/28 07:48:50;;;;;;;4.45;4.05;;;;;;;28.92;76.38;100351.16;5113112;28;20282;-69
2022/06/28 07:54:04;;;;;;;10.02;3.65;;;;;;;29.34;70.55;100347.00;5113247;28;20212;-69
2022/06/28 07:56:31;;;;;;;4.25;3.85;;;;;;;29.65;72.28;100367.44;5112723;28;20209;-69
2022/06/28 07:58:58;;;;;;;6.53;3.63;;;;;;;29.75;64.07;100371.31;5112921;28;20266;-69
2022/06/28 08:01:25;;;;;;;3.92;3.53;;;;;;;29.24;65.41;100362.69;5111681;28;20219;-69
2022/06/28 08:03:52;;;;;;;4.07;3.30;;;;;;;29.60;63.56;100370.41;5112642;28;20197;-69
2022/06/28 08:06:19;;;;;;;3.97;3.17;;;;;;;29.98;60.97;100377.03;5112802;28;20197;-70
2022/06/28 08:08:46;;;;;;;3.88;3.55;;;;;;;29.77;65.38;100378.28;5112641;28;20221;-70
2022/06/28 08:11:14;;;;;;;4.13;3.10;;;;;;;29.88;62.30;100365.19;5112671;28;20208;-70
2022/06/28 08:13:41;;;;;;;3.28;3.00;;;;;;;29.63;63.67;100369.34;5076430;28;20189;-70
2022/06/28 08:16:08;;;;;;;3.25;3.05;;;;;;;29.41;64.70;100367.94;5112431;28;20639;-68
2022/06/28 08:18:35;;;;;;;3.88;3.22;;;;;;;29.78;63.81;100369.31;5112249;28;20590;-71
2022/06/28 08:21:01;;;;;;;7.03;3.78;;;;;;;29.52;64.57;100359.28;5112561;28;20206;-71
2022/06/28 08:23:28;;;;;;;7.68;3.45;;;;;;;30.07;63.13;100362.25;5112173;28;20609;-71
2022/06/28 08:25:55;;;;;;;3.95;3.20;;;;;;;30.60;59.67;100364.31;5112477;28;20212;-71
2022/06/28 08:28:23;;;;;;;4.80;3.13;;;;;;;30.74;57.37;100358.06;5111937;28;20221;-71
2022/06/28 08:30:50;;;;;;;5.95;3.10;;;;;;;30.61;55.18;100365.16;5112312;28;20310;-71
2022/06/28 08:33:17;;;;;;;6.57;3.85;;;;;;;30.51;58.95;100354.16;5112421;28;20201;-71
2022/06/28 08:35:45;;;;;;;5.50;3.22;;;;;;;30.71;57.81;100344.88;5098042;28;20209;-71
2022/06/28 08:38:12;;;;;;;6.10;3.60;;;;;;;30.93;58.96;100346.06;5112082;28;20201;-71
2022/06/28 08:40:40;;;;;;;4.93;3.20;;;;;;;31.04;56.50;100357.94;5111910;28;20668;-71
2022/06/28 08:43:07;;;;;;;7.55;3.22;;;;;;;31.07;56.42;100339.00;5111895;28;20209;-71
2022/06/28 08:45:36;;;;;;;5.13;3.65;;;;;;;31.31;57.00;100340.91;5111628;28;20614;-72
2022/06/28 08:48:13;;;;;;;3.60;2.90;;;;;;;31.57;57.29;100347.22;5112025;28;20228;-72
2022/06/28 08:50:42;;;;;;;3.83;3.10;;;;;;;31.12;55.40;100337.72;5112046;28;20200;-72
2022/06/28 08:53:10;;;;;;;5.95;3.38;;;;;;;31.05;55.92;100340.91;5111947;28;20193;-69
2022/06/28 08:55:38;;;;;;;3.85;2.75;;;;;;;31.20;53.70;100331.84;5111815;28;20201;-76
2022/06/28 08:58:08;;;;;;;3.28;2.60;;;;;;;31.13;51.67;100312.66;5075923;28;20192;-69
2022/06/28 09:00:36;;;;;;;5.20;2.75;;;;;;;31.82;49.82;100341.91;5111916;28;20224;-69
2022/06/28 09:03:04;;;;;;;9.23;2.72;;;;;;;31.59;47.09;100339.09;5111500;28;20193;-69
2022/06/28 09:05:31;;;;;;;3.90;2.63;;;;;;;31.78;47.69;100331.50;5111458;28;20203;-70
2022/06/28 09:07:58;;;;;;;4.90;2.58;;;;;;;31.77;48.34;100337.81;5111277;28;20232;-69
2022/06/28 09:10:25;;;;;;;5.78;2.60;;;;;;;31.60;46.75;100330.94;5111273;28;20257;-70
2022/06/28 09:13:05;;;;;;;2.60;2.40;;;;;;;31.74;47.46;100338.91;5111106;28;20583;-70
2022/06/28 09:15:48;;;;;;;2.45;2.22;;;;;;;31.27;45.42;100314.41;5098967;28;20704;-70
2022/06/28 09:18:15;;;;;;;5.28;2.70;;;;;;;31.20;47.31;100354.16;5111220;28;20204;-70
2022/06/28 09:20:42;;;;;;;3.53;2.22;;;;;;;30.98;44.66;100290.41;5111222;28;20739;-70
2022/06/28 09:23:21;;;;;;;2.90;2.35;;;;;;;31.41;46.21;100347.38;5111418;28;20313;-70
2022/06/28 09:25:49;;;;;;;3.55;2.67;;;;;;;31.02;48.51;100341.97;5111141;28;20216;-70
2022/06/28 09:28:24;;;;;;;7.47;2.45;;;;;;;31.33;47.64;100343.47;5110977;28;20751;-69
2022/06/28 09:30:52;;;;;;;6.18;2.63;;;;;;;31.40;45.10;100344.78;5111071;28;20228;-69
2022/06/28 09:33:26;;;;;;;3.47;2.33;;;;;;;31.34;47.18;100334.47;5111113;28;20211;-68
2022/06/28 09:35:53;;;;;;;4.00;2.35;;;;;;;31.34;43.03;100340.69;5111085;28;20641;-68
2022/06/28 09:38:32;;;;;;;4.22;2.60;;;;;;;31.45;47.02;100313.19;5110974;28;20220;-69
2022/06/28 09:40:59;;;;;;;7.43;2.30;;;;;;;31.11;45.58;100338.66;5097972;28;20199;-69
2022/06/28 09:43:31;;;;;;;6.00;2.10;;;;;;;31.27;41.43;100355.47;5111051;28;20201;-69
2022/06/28 09:46:04;;;;;;;5.40;2.03;;;;;;;31.59;40.33;100339.94;5110764;28;20226;-70
2022/06/28 09:48:36;;;;;;;8.15;2.28;;;;;;;31.25;42.25;100345.81;5075116;28;20224;-70
2022/06/28 09:51:04;;;;;;;2.83;2.38;;;;;;;31.53;44.20;100334.16;5111094;28;20231;-70
2022/06/28 09:53:33;;;;;;;2.70;2.17;;;;;;;31.35;42.53;100331.72;5110848;28;20192;-69
2022/06/28 09:56:05;;;;;;;3.60;2.33;;;;;;;31.36;43.03;100333.41;5110767;28;20578;-69
2022/06/28 09:58:33;;;;;;;7.22;2.40;;;;;;;31.26;41.73;100332.31;5110856;28;20201;-68
2022/06/28 10:01:02;;;;;;;2.67;2.33;;;;;;;31.47;44.44;100324.63;5110678;28;20197;-68
2022/06/28 10:03:29;;;;;;;5.10;2.38;;;;;;;31.70;43.45;100320.44;5111045;28;20197;-68
2022/06/28 10:05:57;;;;;;;3.25;2.20;;;;;;;31.51;43.08;100328.84;5111103;28;20208;-68
2022/06/28 10:08:24;;;;;;;10.00;2.20;;;;;;;31.70;41.46;100324.00;5110494;28;20224;-68
2022/06/28 10:10:51;;;;;;;6.40;2.15;;;;;;;31.34;42.39;100302.31;5110665;28;20228;-67
2022/06/28 10:16:19;;;;;;;4.05;2.20;;;;;;;31.42;41.08;100318.75;5111081;28;20201;-68
2022/06/28 10:18:49;;;;;;;4.97;2.17;;;;;;;31.88;42.11;100313.81;5110903;28;20211;-68
2022/06/28 10:21:16;;;;;;;4.28;2.25;;;;;;;32.21;41.47;100310.63;5110854;28;20732;-67
2022/06/28 10:23:48;;;;;;;2.42;2.20;;;;;;;32.33;41.83;100248.00;5111909;28;20207;-68
2022/06/28 10:26:20;;;;;;;2.30;2.20;;;;;;;32.48;42.12;100311.34;5115088;28;20212;-67
2022/06/28 10:28:49;;;;;;;2.78;2.10;;;;;;;32.02;42.62;100302.09;5114773;28;20220;-67
2022/06/28 10:31:38;;;;;;;13.40;2.60;;;;;;;31.91;44.63;100297.50;5114316;28;20236;-68
2022/06/28 10:34:08;;;;;;;6.55;2.60;;;;;;;31.72;46.83;100268.41;5114691;28;20257;-68
2022/06/28 10:36:54;;;;;;;3.67;2.60;;;;;;;31.37;46.49;100286.88;5114586;28;20197;-67
2022/06/28 10:39:26;;;;;;;6.50;2.47;;;;;;;31.56;44.91;100291.91;5114842;28;20201;-68
2022/06/28 10:42:05;;;;;;;5.25;2.60;;;;;;;31.65;44.81;100280.53;5114570;27;20203;-68
2022/06/28 10:44:44;;;;;;;4.07;2.63;;;;;;;31.93;46.20;100280.31;5114316;28;20688;-68
2022/06/28 10:47:15;;;;;;;22.27;3.00;;;;;;;31.85;44.25;100249.66;5114548;28;20193;-73
2022/06/28 10:49:54;;;;;;;4.95;2.45;;;;;;;31.92;43.81;100273.25;5114325;28;20228;-69
2022/06/28 10:52:24;;;;;;;3.83;2.70;;;;;;;31.77;44.41;100258.22;5114256;28;20281;-69
2022/06/28 10:55:22;;;;;;;4.15;2.45;;;;;;;32.47;43.62;100274.69;5114181;28;20200;-69
2022/06/28 10:57:50;;;;;;;12.63;2.58;;;;;;;32.20;42.84;100257.91;5114135;28;20200;-69
2022/06/28 11:00:26;;;;;;;3.60;2.20;;;;;;;32.17;42.17;100275.09;5114247;28;20692;-70
2022/06/28 11:03:02;;;;;;;2.53;2.30;;;;;;;32.05;42.63;100272.38;5114256;27;20192;-69
2022/06/28 11:05:48;;;;;;;3.25;2.10;;;;;;;32.42;41.57;100266.13;5113960;28;20218;-69
2022/06/28 11:08:43;;;;;;;2.78;1.80;;;;;;;31.90;43.22;100248.34;5113988;28;20193;-69
2022/06/28 11:11:09;;;;;;;2.30;2.10;;;;;;;31.73;43.46;100251.34;5114296;28;20248;-70
2022/06/28 11:13:36;;;;;;;7.10;2.45;;;;;;;32.01;44.15;100271.72;5113803;28;20679;-70
2022/06/28 11:16:04;;;;;;;4.18;2.67;;;;;;;32.08;43.55;100266.81;5113763;28;20583;-70
2022/06/28 11:18:32;;;;;;;2.83;2.53;;;;;;;31.87;43.71;100264.66;5113813;28;20685;-70
2022/06/28 11:21:01;;;;;;;3.25;2.42;;;;;;;31.36;43.43;100207.44;5113843;28;20197;-69
2022/06/28 11:23:30;;;;;;;4.72;2.33;;;;;;;31.67;43.20;100248.25;5113560;28;20680;-70
2022/06/28 11:28:55;;;;;;;4.03;2.30;;;;;;;31.17;44.74;100257.03;5113451;28;20230;-70
2022/06/28 11:31:22;;;;;;;4.40;2.35;;;;;;;31.03;45.61;100243.72;5113618;28;20228;-69
2022/06/28 11:33:50;;;;;;;3.00;2.80;;;;;;;31.18;45.04;100264.13;5113667;28;20266;-69
2022/06/28 11:36:30;;;;;;;4.28;2.50;;;;;;;31.98;45.20;100266.59;5112529;28;20287;-70
2022/06/28 11:39:02;;;;;;;2.67;2.47;;;;;;;31.85;44.56;100271.13;5113917;28;20657;-69